sensor_id;sensor_type;location;lat;lon;timestamp;temperature;humidity
11846;DHT22;5982;37.494;-8.758;2022-09-27T00:01:11;14.80;99.90
11846;DHT22;5982;37.494;-8.758;2022-09-27T00:03:42;14.70;99.90
11846;DHT22;5982;37.494;-8.758;2022-09-27T00:06:13;14.50;99.90
11846;DHT22;5982;37.494;-8.758;2022-09-27T00:08:42;14.50;99.90
11846;DHT22;5982;37.494;-8.758;2022-09-27T00:11:16;14.50;99.90
11846;DHT22;5982;37.494;-8.758;2022-09-27T00:13:50;14.40;99.90
11846;DHT22;5982;37.494;-8.758;2022-09-27T00:16:18;14.30;99.90
11846;DHT22;5982;37.494;-8.758;2022-09-27T00:18:48;14.20;99.90
11846;DHT22;5982;37.494;-8.758;2022-09-27T00:21:16;14.10;99.90
11846;DHT22;5982;37.494;-8.758;2022-09-27T00:23:44;14.10;99.90
11846;DHT22;5982;37.494;-8.758;2022-09-27T00:26:12;13.90;99.90
11846;DHT22;5982;37.494;-8.758;2022-09-27T00:28:41;13.80;99.90
11846;DHT22;5982;37.494;-8.758;2022-09-27T00:31:18;13.70;99.90
11846;DHT22;5982;37.494;-8.758;2022-09-27T00:33:49;13.70;99.90
11846;DHT22;5982;37.494;-8.758;2022-09-27T00:36:21;13.60;99.90
11846;DHT22;5982;37.494;-8.758;2022-09-27T00:38:51;13.50;99.90
11846;DHT22;5982;37.494;-8.758;2022-09-27T00:41:21;13.50;99.90
11846;DHT22;5982;37.494;-8.758;2022-09-27T00:43:52;13.50;99.90
11846;DHT22;5982;37.494;-8.758;2022-09-27T00:46:27;13.40;99.90
11846;DHT22;5982;37.494;-8.758;2022-09-27T00:49:04;13.40;99.90
11846;DHT22;5982;37.494;-8.758;2022-09-27T00:51:37;13.40;99.90
11846;DHT22;5982;37.494;-8.758;2022-09-27T00:54:08;13.50;99.90
11846;DHT22;5982;37.494;-8.758;2022-09-27T00:56:39;13.60;99.90
11846;DHT22;5982;37.494;-8.758;2022-09-27T00:59:13;13.50;99.90
11846;DHT22;5982;37.494;-8.758;2022-09-27T01:01:43;13.50;99.90
11846;DHT22;5982;37.494;-8.758;2022-09-27T01:04:17;13.50;99.90
11846;DHT22;5982;37.494;-8.758;2022-09-27T01:06:49;13.50;99.90
11846;DHT22;5982;37.494;-8.758;2022-09-27T01:09:18;13.60;99.90
11846;DHT22;5982;37.494;-8.758;2022-09-27T01:11:53;13.70;99.90
11846;DHT22;5982;37.494;-8.758;2022-09-27T01:14:40;13.70;99.90
11846;DHT22;5982;37.494;-8.758;2022-09-27T01:17:24;13.60;99.90
11846;DHT22;5982;37.494;-8.758;2022-09-27T01:20:31;13.70;99.90
11846;DHT22;5982;37.494;-8.758;2022-09-27T01:23:41;13.70;99.90
11846;DHT22;5982;37.494;-8.758;2022-09-27T01:26:54;13.60;99.90
11846;DHT22;5982;37.494;-8.758;2022-09-27T01:33:07;13.60;99.90
11846;DHT22;5982;37.494;-8.758;2022-09-27T01:35:51;13.70;99.90
11846;DHT22;5982;37.494;-8.758;2022-09-27T01:38:42;13.70;99.90
11846;DHT22;5982;37.494;-8.758;2022-09-27T01:41:24;13.70;99.90
11846;DHT22;5982;37.494;-8.758;2022-09-27T01:43:58;13.80;99.90
11846;DHT22;5982;37.494;-8.758;2022-09-27T01:46:33;13.80;99.90
11846;DHT22;5982;37.494;-8.758;2022-09-27T01:49:12;13.90;99.90
11846;DHT22;5982;37.494;-8.758;2022-09-27T01:51:47;13.90;99.90
11846;DHT22;5982;37.494;-8.758;2022-09-27T01:54:22;14.00;99.90
11846;DHT22;5982;37.494;-8.758;2022-09-27T01:56:54;14.10;99.90
11846;DHT22;5982;37.494;-8.758;2022-09-27T01:59:26;14.10;99.90
11846;DHT22;5982;37.494;-8.758;2022-09-27T02:02:02;14.20;99.90
11846;DHT22;5982;37.494;-8.758;2022-09-27T02:04:37;14.20;99.90
11846;DHT22;5982;37.494;-8.758;2022-09-27T02:07:10;14.30;99.90
11846;DHT22;5982;37.494;-8.758;2022-09-27T02:09:44;14.30;99.90
11846;DHT22;5982;37.494;-8.758;2022-09-27T02:12:20;14.40;99.90
11846;DHT22;5982;37.494;-8.758;2022-09-27T02:14:54;14.40;99.90
11846;DHT22;5982;37.494;-8.758;2022-09-27T02:17:27;14.40;99.90
11846;DHT22;5982;37.494;-8.758;2022-09-27T02:20:05;14.50;99.90
11846;DHT22;5982;37.494;-8.758;2022-09-27T02:22:41;14.50;99.90
11846;DHT22;5982;37.494;-8.758;2022-09-27T02:25:19;14.60;99.90
11846;DHT22;5982;37.494;-8.758;2022-09-27T02:27:56;14.60;99.90
11846;DHT22;5982;37.494;-8.758;2022-09-27T02:30:26;14.60;99.90
11846;DHT22;5982;37.494;-8.758;2022-09-27T02:32:54;14.60;99.90
11846;DHT22;5982;37.494;-8.758;2022-09-27T02:35:27;14.70;99.90
11846;DHT22;5982;37.494;-8.758;2022-09-27T02:38:00;14.70;99.90
11846;DHT22;5982;37.494;-8.758;2022-09-27T02:40:32;14.70;99.90
11846;DHT22;5982;37.494;-8.758;2022-09-27T02:43:03;14.70;99.90
11846;DHT22;5982;37.494;-8.758;2022-09-27T02:45:42;14.60;99.90
11846;DHT22;5982;37.494;-8.758;2022-09-27T02:48:23;14.60;99.90
11846;DHT22;5982;37.494;-8.758;2022-09-27T02:51:09;14.60;99.90
11846;DHT22;5982;37.494;-8.758;2022-09-27T02:53:57;14.60;99.90
11846;DHT22;5982;37.494;-8.758;2022-09-27T02:56:34;14.60;99.90
11846;DHT22;5982;37.494;-8.758;2022-09-27T02:59:20;14.70;99.90
11846;DHT22;5982;37.494;-8.758;2022-09-27T03:02:01;14.60;99.90
11846;DHT22;5982;37.494;-8.758;2022-09-27T03:04:38;14.70;99.90
11846;DHT22;5982;37.494;-8.758;2022-09-27T03:07:09;14.70;99.90
11846;DHT22;5982;37.494;-8.758;2022-09-27T03:09:42;14.70;99.90
11846;DHT22;5982;37.494;-8.758;2022-09-27T03:12:13;14.80;99.90
11846;DHT22;5982;37.494;-8.758;2022-09-27T03:14:45;14.80;99.90
11846;DHT22;5982;37.494;-8.758;2022-09-27T03:17:14;14.80;99.90
11846;DHT22;5982;37.494;-8.758;2022-09-27T03:19:42;14.80;99.90
11846;DHT22;5982;37.494;-8.758;2022-09-27T03:22:13;14.80;99.90
11846;DHT22;5982;37.494;-8.758;2022-09-27T03:24:41;14.80;99.90
11846;DHT22;5982;37.494;-8.758;2022-09-27T03:27:10;14.80;99.90
11846;DHT22;5982;37.494;-8.758;2022-09-27T03:29:39;14.80;99.90
11846;DHT22;5982;37.494;-8.758;2022-09-27T03:32:07;14.80;99.90
11846;DHT22;5982;37.494;-8.758;2022-09-27T03:34:35;14.70;99.90
11846;DHT22;5982;37.494;-8.758;2022-09-27T03:37:04;14.70;99.90
11846;DHT22;5982;37.494;-8.758;2022-09-27T03:39:34;14.70;99.90
11846;DHT22;5982;37.494;-8.758;2022-09-27T03:42:06;14.70;99.90
11846;DHT22;5982;37.494;-8.758;2022-09-27T03:44:34;14.70;99.90
11846;DHT22;5982;37.494;-8.758;2022-09-27T03:47:03;14.60;99.90
11846;DHT22;5982;37.494;-8.758;2022-09-27T03:49:31;14.60;99.90
11846;DHT22;5982;37.494;-8.758;2022-09-27T03:52:00;14.60;99.90
11846;DHT22;5982;37.494;-8.758;2022-09-27T03:54:29;14.50;99.90
11846;DHT22;5982;37.494;-8.758;2022-09-27T03:56:59;14.50;99.90
11846;DHT22;5982;37.494;-8.758;2022-09-27T03:59:27;14.50;99.90
11846;DHT22;5982;37.494;-8.758;2022-09-27T04:01:56;14.50;99.90
11846;DHT22;5982;37.494;-8.758;2022-09-27T04:04:24;14.40;99.90
11846;DHT22;5982;37.494;-8.758;2022-09-27T04:06:52;14.40;99.90
11846;DHT22;5982;37.494;-8.758;2022-09-27T04:09:22;14.40;99.90
11846;DHT22;5982;37.494;-8.758;2022-09-27T04:11:51;14.40;99.90
11846;DHT22;5982;37.494;-8.758;2022-09-27T04:14:21;14.40;99.90
11846;DHT22;5982;37.494;-8.758;2022-09-27T04:16:49;14.60;99.90
11846;DHT22;5982;37.494;-8.758;2022-09-27T04:19:17;14.70;99.90
11846;DHT22;5982;37.494;-8.758;2022-09-27T04:21:46;14.90;99.90
11846;DHT22;5982;37.494;-8.758;2022-09-27T04:24:15;15.00;99.90
11846;DHT22;5982;37.494;-8.758;2022-09-27T04:26:43;15.10;99.90
11846;DHT22;5982;37.494;-8.758;2022-09-27T04:29:12;15.20;99.90
11846;DHT22;5982;37.494;-8.758;2022-09-27T04:31:42;15.30;99.90
11846;DHT22;5982;37.494;-8.758;2022-09-27T04:34:10;15.30;99.90
11846;DHT22;5982;37.494;-8.758;2022-09-27T04:36:38;15.40;99.90
11846;DHT22;5982;37.494;-8.758;2022-09-27T04:39:07;15.40;99.90
11846;DHT22;5982;37.494;-8.758;2022-09-27T04:41:38;15.40;99.90
11846;DHT22;5982;37.494;-8.758;2022-09-27T04:44:06;15.40;99.90
11846;DHT22;5982;37.494;-8.758;2022-09-27T04:46:34;15.40;99.90
11846;DHT22;5982;37.494;-8.758;2022-09-27T04:49:04;15.40;99.90
11846;DHT22;5982;37.494;-8.758;2022-09-27T04:51:32;15.40;99.90
11846;DHT22;5982;37.494;-8.758;2022-09-27T04:54:01;15.40;99.90
11846;DHT22;5982;37.494;-8.758;2022-09-27T04:56:29;15.40;99.90
11846;DHT22;5982;37.494;-8.758;2022-09-27T04:59:01;15.40;99.90
11846;DHT22;5982;37.494;-8.758;2022-09-27T05:01:29;15.40;99.90
11846;DHT22;5982;37.494;-8.758;2022-09-27T05:03:58;15.40;99.90
11846;DHT22;5982;37.494;-8.758;2022-09-27T05:06:28;15.30;99.90
11846;DHT22;5982;37.494;-8.758;2022-09-27T05:08:56;15.20;99.90
11846;DHT22;5982;37.494;-8.758;2022-09-27T05:11:25;15.10;99.90
11846;DHT22;5982;37.494;-8.758;2022-09-27T05:13:54;15.00;99.90
11846;DHT22;5982;37.494;-8.758;2022-09-27T05:16:22;14.90;99.90
11846;DHT22;5982;37.494;-8.758;2022-09-27T05:18:51;14.80;99.90
11846;DHT22;5982;37.494;-8.758;2022-09-27T05:21:19;14.80;99.90
11846;DHT22;5982;37.494;-8.758;2022-09-27T05:23:49;14.80;99.90
11846;DHT22;5982;37.494;-8.758;2022-09-27T05:26:19;14.80;99.90
11846;DHT22;5982;37.494;-8.758;2022-09-27T05:28:47;14.80;99.90
11846;DHT22;5982;37.494;-8.758;2022-09-27T05:31:16;14.80;99.90
11846;DHT22;5982;37.494;-8.758;2022-09-27T05:33:44;14.70;99.90
11846;DHT22;5982;37.494;-8.758;2022-09-27T05:36:12;14.70;99.90
11846;DHT22;5982;37.494;-8.758;2022-09-27T05:38:41;14.70;99.90
11846;DHT22;5982;37.494;-8.758;2022-09-27T05:41:11;14.60;99.90
11846;DHT22;5982;37.494;-8.758;2022-09-27T05:43:39;14.60;99.90
11846;DHT22;5982;37.494;-8.758;2022-09-27T05:46:07;14.50;99.90
11846;DHT22;5982;37.494;-8.758;2022-09-27T05:48:36;14.50;99.90
11846;DHT22;5982;37.494;-8.758;2022-09-27T05:51:04;14.60;99.90
11846;DHT22;5982;37.494;-8.758;2022-09-27T05:53:33;14.60;99.90
11846;DHT22;5982;37.494;-8.758;2022-09-27T05:56:02;14.70;99.90
11846;DHT22;5982;37.494;-8.758;2022-09-27T05:58:32;14.80;99.90
11846;DHT22;5982;37.494;-8.758;2022-09-27T06:01:01;14.90;99.90
11846;DHT22;5982;37.494;-8.758;2022-09-27T06:03:33;15.00;99.90
11846;DHT22;5982;37.494;-8.758;2022-09-27T06:06:01;15.00;99.90
11846;DHT22;5982;37.494;-8.758;2022-09-27T06:08:32;15.10;99.90
11846;DHT22;5982;37.494;-8.758;2022-09-27T06:11:03;15.00;99.90
11846;DHT22;5982;37.494;-8.758;2022-09-27T06:13:34;15.00;99.90
11846;DHT22;5982;37.494;-8.758;2022-09-27T06:16:03;15.00;99.90
11846;DHT22;5982;37.494;-8.758;2022-09-27T06:18:35;15.00;99.90
11846;DHT22;5982;37.494;-8.758;2022-09-27T06:21:05;15.10;99.90
11846;DHT22;5982;37.494;-8.758;2022-09-27T06:23:33;15.20;99.90
11846;DHT22;5982;37.494;-8.758;2022-09-27T06:26:03;15.30;99.90
11846;DHT22;5982;37.494;-8.758;2022-09-27T06:28:34;15.40;99.90
11846;DHT22;5982;37.494;-8.758;2022-09-27T06:31:05;15.50;99.90
11846;DHT22;5982;37.494;-8.758;2022-09-27T06:33:34;15.50;99.90
11846;DHT22;5982;37.494;-8.758;2022-09-27T06:36:04;15.60;99.90
11846;DHT22;5982;37.494;-8.758;2022-09-27T06:38:33;15.50;99.90
11846;DHT22;5982;37.494;-8.758;2022-09-27T06:41:04;15.50;99.90
11846;DHT22;5982;37.494;-8.758;2022-09-27T06:43:35;15.40;99.90
11846;DHT22;5982;37.494;-8.758;2022-09-27T06:46:04;15.40;99.90
11846;DHT22;5982;37.494;-8.758;2022-09-27T06:48:33;15.40;99.90
11846;DHT22;5982;37.494;-8.758;2022-09-27T06:51:04;15.40;99.90
11846;DHT22;5982;37.494;-8.758;2022-09-27T06:53:33;15.40;99.90
11846;DHT22;5982;37.494;-8.758;2022-09-27T06:56:02;15.50;99.90
11846;DHT22;5982;37.494;-8.758;2022-09-27T06:58:30;15.60;99.90
11846;DHT22;5982;37.494;-8.758;2022-09-27T07:01:17;16.00;99.90
11846;DHT22;5982;37.494;-8.758;2022-09-27T07:03:49;17.10;99.90
11846;DHT22;5982;37.494;-8.758;2022-09-27T07:06:19;18.00;99.90
11846;DHT22;5982;37.494;-8.758;2022-09-27T07:08:51;18.80;99.90
11846;DHT22;5982;37.494;-8.758;2022-09-27T07:11:23;19.50;99.90
11846;DHT22;5982;37.494;-8.758;2022-09-27T07:13:51;20.20;99.90
11846;DHT22;5982;37.494;-8.758;2022-09-27T07:16:23;20.80;99.90
11846;DHT22;5982;37.494;-8.758;2022-09-27T07:18:51;21.20;99.90
11846;DHT22;5982;37.494;-8.758;2022-09-27T07:21:19;21.40;99.90
11846;DHT22;5982;37.494;-8.758;2022-09-27T07:23:48;21.80;99.90
11846;DHT22;5982;37.494;-8.758;2022-09-27T07:26:16;22.20;99.90
11846;DHT22;5982;37.494;-8.758;2022-09-27T07:28:45;22.30;99.90
11846;DHT22;5982;37.494;-8.758;2022-09-27T07:31:13;21.90;99.90
11846;DHT22;5982;37.494;-8.758;2022-09-27T07:33:43;21.30;99.90
11846;DHT22;5982;37.494;-8.758;2022-09-27T07:36:12;20.80;99.90
11846;DHT22;5982;37.494;-8.758;2022-09-27T07:38:41;20.60;99.90
11846;DHT22;5982;37.494;-8.758;2022-09-27T07:41:11;20.50;99.90
11846;DHT22;5982;37.494;-8.758;2022-09-27T07:43:41;20.30;99.90
11846;DHT22;5982;37.494;-8.758;2022-09-27T07:46:13;20.20;99.90
11846;DHT22;5982;37.494;-8.758;2022-09-27T07:48:43;20.20;99.90
11846;DHT22;5982;37.494;-8.758;2022-09-27T07:51:12;20.20;99.90
11846;DHT22;5982;37.494;-8.758;2022-09-27T07:53:41;20.20;99.90
11846;DHT22;5982;37.494;-8.758;2022-09-27T07:56:10;20.20;99.90
11846;DHT22;5982;37.494;-8.758;2022-09-27T07:58:38;20.10;99.90
11846;DHT22;5982;37.494;-8.758;2022-09-27T08:01:12;20.20;99.90
11846;DHT22;5982;37.494;-8.758;2022-09-27T08:03:40;20.20;99.90
11846;DHT22;5982;37.494;-8.758;2022-09-27T08:06:10;20.20;99.90
11846;DHT22;5982;37.494;-8.758;2022-09-27T08:09:06;20.30;99.90
11846;DHT22;5982;37.494;-8.758;2022-09-27T08:11:41;20.30;99.90
11846;DHT22;5982;37.494;-8.758;2022-09-27T08:14:11;20.30;99.90
11846;DHT22;5982;37.494;-8.758;2022-09-27T08:16:40;20.40;99.90
11846;DHT22;5982;37.494;-8.758;2022-09-27T08:19:10;20.40;99.90
11846;DHT22;5982;37.494;-8.758;2022-09-27T08:21:40;20.60;99.90
11846;DHT22;5982;37.494;-8.758;2022-09-27T08:24:08;20.70;99.90
11846;DHT22;5982;37.494;-8.758;2022-09-27T08:26:37;20.80;99.90
11846;DHT22;5982;37.494;-8.758;2022-09-27T08:29:06;20.80;99.90
11846;DHT22;5982;37.494;-8.758;2022-09-27T08:31:34;20.80;99.90
11846;DHT22;5982;37.494;-8.758;2022-09-27T08:34:02;20.70;99.90
11846;DHT22;5982;37.494;-8.758;2022-09-27T08:36:33;20.70;99.90
11846;DHT22;5982;37.494;-8.758;2022-09-27T08:39:03;20.80;99.90
11846;DHT22;5982;37.494;-8.758;2022-09-27T08:41:36;20.90;99.90
11846;DHT22;5982;37.494;-8.758;2022-09-27T08:44:12;21.00;99.90
11846;DHT22;5982;37.494;-8.758;2022-09-27T08:46:52;21.00;99.90
11846;DHT22;5982;37.494;-8.758;2022-09-27T08:49:31;21.10;99.90
11846;DHT22;5982;37.494;-8.758;2022-09-27T08:52:04;21.10;99.90
11846;DHT22;5982;37.494;-8.758;2022-09-27T08:54:35;21.10;99.90
11846;DHT22;5982;37.494;-8.758;2022-09-27T08:57:08;21.30;99.90
11846;DHT22;5982;37.494;-8.758;2022-09-27T08:59:40;21.30;99.90
11846;DHT22;5982;37.494;-8.758;2022-09-27T09:02:16;21.40;99.90
11846;DHT22;5982;37.494;-8.758;2022-09-27T09:04:47;21.50;99.90
11846;DHT22;5982;37.494;-8.758;2022-09-27T09:07:36;21.60;99.90
11846;DHT22;5982;37.494;-8.758;2022-09-27T09:10:24;21.60;99.90
11846;DHT22;5982;37.494;-8.758;2022-09-27T09:13:27;21.80;99.90
11846;DHT22;5982;37.494;-8.758;2022-09-27T09:16:15;21.70;99.90
11846;DHT22;5982;37.494;-8.758;2022-09-27T09:19:03;21.70;99.90
11846;DHT22;5982;37.494;-8.758;2022-09-27T09:21:46;21.70;99.90
11846;DHT22;5982;37.494;-8.758;2022-09-27T09:24:28;21.80;99.90
11846;DHT22;5982;37.494;-8.758;2022-09-27T09:27:12;21.80;99.90
11846;DHT22;5982;37.494;-8.758;2022-09-27T09:29:57;21.90;99.90
11846;DHT22;5982;37.494;-8.758;2022-09-27T09:32:42;22.00;99.90
11846;DHT22;5982;37.494;-8.758;2022-09-27T09:35:20;22.10;99.90
11846;DHT22;5982;37.494;-8.758;2022-09-27T09:37:52;22.20;99.90
11846;DHT22;5982;37.494;-8.758;2022-09-27T09:40:26;22.40;99.90
11846;DHT22;5982;37.494;-8.758;2022-09-27T09:43:00;22.60;99.90
11846;DHT22;5982;37.494;-8.758;2022-09-27T09:45:32;22.60;99.90
11846;DHT22;5982;37.494;-8.758;2022-09-27T09:48:06;22.40;99.90
11846;DHT22;5982;37.494;-8.758;2022-09-27T09:50:41;22.40;99.90
11846;DHT22;5982;37.494;-8.758;2022-09-27T09:53:15;22.50;99.90
11846;DHT22;5982;37.494;-8.758;2022-09-27T09:55:51;22.40;99.90
11846;DHT22;5982;37.494;-8.758;2022-09-27T09:58:25;22.50;99.90
11846;DHT22;5982;37.494;-8.758;2022-09-27T10:00:59;22.50;99.90
11846;DHT22;5982;37.494;-8.758;2022-09-27T10:03:38;22.50;99.90
11846;DHT22;5982;37.494;-8.758;2022-09-27T10:06:07;22.30;99.90
11846;DHT22;5982;37.494;-8.758;2022-09-27T10:08:37;22.20;99.90
11846;DHT22;5982;37.494;-8.758;2022-09-27T10:11:16;22.20;99.90
11846;DHT22;5982;37.494;-8.758;2022-09-27T10:13:46;22.40;99.90
11846;DHT22;5982;37.494;-8.758;2022-09-27T10:16:18;22.50;99.90
11846;DHT22;5982;37.494;-8.758;2022-09-27T10:18:49;22.50;99.90
11846;DHT22;5982;37.494;-8.758;2022-09-27T10:21:20;22.50;99.90
11846;DHT22;5982;37.494;-8.758;2022-09-27T10:24:06;22.60;99.90
11846;DHT22;5982;37.494;-8.758;2022-09-27T10:26:39;22.80;99.90
11846;DHT22;5982;37.494;-8.758;2022-09-27T10:29:29;22.80;99.90
11846;DHT22;5982;37.494;-8.758;2022-09-27T10:31:59;22.80;99.90
11846;DHT22;5982;37.494;-8.758;2022-09-27T10:34:32;22.90;99.90
11846;DHT22;5982;37.494;-8.758;2022-09-27T10:37:17;23.00;99.90
11846;DHT22;5982;37.494;-8.758;2022-09-27T10:39:49;23.00;99.90
11846;DHT22;5982;37.494;-8.758;2022-09-27T10:42:31;23.00;99.90
11846;DHT22;5982;37.494;-8.758;2022-09-27T10:45:24;23.00;99.90
11846;DHT22;5982;37.494;-8.758;2022-09-27T10:48:00;23.00;99.90
11846;DHT22;5982;37.494;-8.758;2022-09-27T10:50:30;23.00;99.90
11846;DHT22;5982;37.494;-8.758;2022-09-27T10:53:03;23.00;99.90
11846;DHT22;5982;37.494;-8.758;2022-09-27T10:55:34;23.00;99.90
11846;DHT22;5982;37.494;-8.758;2022-09-27T10:58:13;22.90;99.90
11846;DHT22;5982;37.494;-8.758;2022-09-27T11:00:54;22.90;99.90
11846;DHT22;5982;37.494;-8.758;2022-09-27T11:03:24;22.90;99.90
11846;DHT22;5982;37.494;-8.758;2022-09-27T11:05:54;23.00;99.90
11846;DHT22;5982;37.494;-8.758;2022-09-27T11:08:29;23.00;99.90
11846;DHT22;5982;37.494;-8.758;2022-09-27T11:11:05;23.10;99.90
11846;DHT22;5982;37.494;-8.758;2022-09-27T11:13:57;23.20;99.90
11846;DHT22;5982;37.494;-8.758;2022-09-27T11:16:41;23.00;99.90
11846;DHT22;5982;37.494;-8.758;2022-09-27T11:19:26;23.10;99.90
11846;DHT22;5982;37.494;-8.758;2022-09-27T11:22:12;23.20;99.90
11846;DHT22;5982;37.494;-8.758;2022-09-27T11:25:00;23.30;99.90
11846;DHT22;5982;37.494;-8.758;2022-09-27T11:27:42;23.30;99.90
11846;DHT22;5982;37.494;-8.758;2022-09-27T11:30:19;23.20;99.90
11846;DHT22;5982;37.494;-8.758;2022-09-27T11:33:03;23.20;99.90
11846;DHT22;5982;37.494;-8.758;2022-09-27T11:35:48;23.20;99.90
11846;DHT22;5982;37.494;-8.758;2022-09-27T11:38:25;23.20;99.90
11846;DHT22;5982;37.494;-8.758;2022-09-27T11:47:32;23.50;99.90
11846;DHT22;5982;37.494;-8.758;2022-09-27T11:50:29;23.60;99.90
11846;DHT22;5982;37.494;-8.758;2022-09-27T11:53:24;23.70;99.90
11846;DHT22;5982;37.494;-8.758;2022-09-27T11:56:06;23.70;99.90
11846;DHT22;5982;37.494;-8.758;2022-09-27T11:58:59;23.70;99.90
11846;DHT22;5982;37.494;-8.758;2022-09-27T12:01:44;23.70;99.90
11846;DHT22;5982;37.494;-8.758;2022-09-27T12:07:32;23.80;99.90
11846;DHT22;5982;37.494;-8.758;2022-09-27T12:10:10;24.00;99.90
11846;DHT22;5982;37.494;-8.758;2022-09-27T12:12:44;24.20;99.90
11846;DHT22;5982;37.494;-8.758;2022-09-27T12:15:19;24.20;99.90
11846;DHT22;5982;37.494;-8.758;2022-09-27T12:17:51;24.10;99.90
11846;DHT22;5982;37.494;-8.758;2022-09-27T12:20:28;24.20;99.90
11846;DHT22;5982;37.494;-8.758;2022-09-27T12:23:02;24.10;99.90
11846;DHT22;5982;37.494;-8.758;2022-09-27T12:25:35;24.10;99.90
11846;DHT22;5982;37.494;-8.758;2022-09-27T12:28:09;23.90;99.90
11846;DHT22;5982;37.494;-8.758;2022-09-27T12:30:44;23.70;99.90
11846;DHT22;5982;37.494;-8.758;2022-09-27T12:33:21;23.80;99.90
11846;DHT22;5982;37.494;-8.758;2022-09-27T12:35:58;23.80;99.90
11846;DHT22;5982;37.494;-8.758;2022-09-27T12:38:36;23.70;99.90
11846;DHT22;5982;37.494;-8.758;2022-09-27T12:41:10;23.60;99.90
11846;DHT22;5982;37.494;-8.758;2022-09-27T12:43:45;23.60;99.90
11846;DHT22;5982;37.494;-8.758;2022-09-27T12:46:24;23.60;99.90
11846;DHT22;5982;37.494;-8.758;2022-09-27T12:49:04;23.70;99.90
11846;DHT22;5982;37.494;-8.758;2022-09-27T12:51:42;23.60;99.90
11846;DHT22;5982;37.494;-8.758;2022-09-27T12:54:44;23.50;99.90
11846;DHT22;5982;37.494;-8.758;2022-09-27T12:57:28;23.60;99.90
11846;DHT22;5982;37.494;-8.758;2022-09-27T13:00:06;23.50;99.90
11846;DHT22;5982;37.494;-8.758;2022-09-27T13:06:28;23.40;99.90
11846;DHT22;5982;37.494;-8.758;2022-09-27T13:09:43;23.60;99.90
11846;DHT22;5982;37.494;-8.758;2022-09-27T13:12:33;23.70;99.90
11846;DHT22;5982;37.494;-8.758;2022-09-27T13:15:04;23.70;99.90
11846;DHT22;5982;37.494;-8.758;2022-09-27T13:17:48;23.90;99.90
11846;DHT22;5982;37.494;-8.758;2022-09-27T13:20:40;23.80;99.90
11846;DHT22;5982;37.494;-8.758;2022-09-27T13:29:32;23.90;99.90
11846;DHT22;5982;37.494;-8.758;2022-09-27T13:34:50;24.10;99.90
11846;DHT22;5982;37.494;-8.758;2022-09-27T13:37:43;24.30;99.90
11846;DHT22;5982;37.494;-8.758;2022-09-27T13:40:30;24.30;99.90
11846;DHT22;5982;37.494;-8.758;2022-09-27T13:46:15;24.70;99.90
11846;DHT22;5982;37.494;-8.758;2022-09-27T13:48:49;24.80;99.90
11846;DHT22;5982;37.494;-8.758;2022-09-27T13:51:30;24.60;99.90
11846;DHT22;5982;37.494;-8.758;2022-09-27T13:54:04;24.40;99.90
11846;DHT22;5982;37.494;-8.758;2022-09-27T13:56:52;24.40;99.90
11846;DHT22;5982;37.494;-8.758;2022-09-27T13:59:31;24.50;99.90
11846;DHT22;5982;37.494;-8.758;2022-09-27T14:02:11;24.70;99.90
11846;DHT22;5982;37.494;-8.758;2022-09-27T14:04:51;24.60;99.90
11846;DHT22;5982;37.494;-8.758;2022-09-27T14:07:23;24.50;99.90
11846;DHT22;5982;37.494;-8.758;2022-09-27T14:09:57;24.30;99.90
11846;DHT22;5982;37.494;-8.758;2022-09-27T14:12:30;24.20;99.90
11846;DHT22;5982;37.494;-8.758;2022-09-27T14:15:04;24.30;99.90
11846;DHT22;5982;37.494;-8.758;2022-09-27T14:17:40;24.40;99.90
11846;DHT22;5982;37.494;-8.758;2022-09-27T14:20:29;24.60;99.90
11846;DHT22;5982;37.494;-8.758;2022-09-27T14:23:02;24.50;99.90
11846;DHT22;5982;37.494;-8.758;2022-09-27T14:25:31;24.50;99.90
11846;DHT22;5982;37.494;-8.758;2022-09-27T14:27:59;24.20;99.90
11846;DHT22;5982;37.494;-8.758;2022-09-27T14:30:30;24.10;99.90
11846;DHT22;5982;37.494;-8.758;2022-09-27T14:32:58;24.20;99.90
11846;DHT22;5982;37.494;-8.758;2022-09-27T14:35:29;24.30;99.90
11846;DHT22;5982;37.494;-8.758;2022-09-27T14:38:18;24.30;99.90
11846;DHT22;5982;37.494;-8.758;2022-09-27T14:40:57;24.40;99.90
11846;DHT22;5982;37.494;-8.758;2022-09-27T14:43:27;24.50;99.90
11846;DHT22;5982;37.494;-8.758;2022-09-27T14:46:00;24.50;99.90
11846;DHT22;5982;37.494;-8.758;2022-09-27T14:48:33;24.40;99.90
11846;DHT22;5982;37.494;-8.758;2022-09-27T14:51:14;24.30;99.90
11846;DHT22;5982;37.494;-8.758;2022-09-27T14:53:48;24.30;99.90
11846;DHT22;5982;37.494;-8.758;2022-09-27T14:56:24;24.20;99.90
11846;DHT22;5982;37.494;-8.758;2022-09-27T14:59:01;24.00;99.90
11846;DHT22;5982;37.494;-8.758;2022-09-27T15:01:33;23.70;99.90
11846;DHT22;5982;37.494;-8.758;2022-09-27T15:04:05;23.60;99.90
11846;DHT22;5982;37.494;-8.758;2022-09-27T15:06:36;23.50;99.90
11846;DHT22;5982;37.494;-8.758;2022-09-27T15:09:05;23.50;99.90
11846;DHT22;5982;37.494;-8.758;2022-09-27T15:11:39;23.60;99.90
11846;DHT22;5982;37.494;-8.758;2022-09-27T15:14:12;23.50;99.90
11846;DHT22;5982;37.494;-8.758;2022-09-27T15:16:44;23.50;99.90
11846;DHT22;5982;37.494;-8.758;2022-09-27T15:19:15;23.50;99.90
11846;DHT22;5982;37.494;-8.758;2022-09-27T15:21:44;23.60;99.90
11846;DHT22;5982;37.494;-8.758;2022-09-27T15:24:42;23.70;99.90
11846;DHT22;5982;37.494;-8.758;2022-09-27T15:27:16;23.70;99.90
11846;DHT22;5982;37.494;-8.758;2022-09-27T15:29:50;23.90;99.90
11846;DHT22;5982;37.494;-8.758;2022-09-27T15:32:23;24.00;99.90
11846;DHT22;5982;37.494;-8.758;2022-09-27T15:34:55;24.10;99.90
11846;DHT22;5982;37.494;-8.758;2022-09-27T15:37:26;24.00;99.90
11846;DHT22;5982;37.494;-8.758;2022-09-27T15:39:56;23.90;99.90
11846;DHT22;5982;37.494;-8.758;2022-09-27T15:43:01;23.70;99.90
11846;DHT22;5982;37.494;-8.758;2022-09-27T15:45:32;23.60;99.90
11846;DHT22;5982;37.494;-8.758;2022-09-27T15:48:12;23.60;99.90
11846;DHT22;5982;37.494;-8.758;2022-09-27T15:50:42;23.40;99.90
11846;DHT22;5982;37.494;-8.758;2022-09-27T15:53:12;23.30;99.90
11846;DHT22;5982;37.494;-8.758;2022-09-27T15:56:12;23.20;99.90
11846;DHT22;5982;37.494;-8.758;2022-09-27T15:58:42;23.20;99.90
11846;DHT22;5982;37.494;-8.758;2022-09-27T16:01:17;23.20;99.90
11846;DHT22;5982;37.494;-8.758;2022-09-27T16:03:48;23.30;99.90
11846;DHT22;5982;37.494;-8.758;2022-09-27T16:06:16;23.30;99.90
11846;DHT22;5982;37.494;-8.758;2022-09-27T16:08:45;23.20;99.90
11846;DHT22;5982;37.494;-8.758;2022-09-27T16:11:18;23.00;99.90
11846;DHT22;5982;37.494;-8.758;2022-09-27T16:13:46;23.00;99.90
11846;DHT22;5982;37.494;-8.758;2022-09-27T16:16:17;22.80;99.90
11846;DHT22;5982;37.494;-8.758;2022-09-27T16:18:48;22.60;99.90
11846;DHT22;5982;37.494;-8.758;2022-09-27T16:21:17;22.50;99.90
11846;DHT22;5982;37.494;-8.758;2022-09-27T16:23:47;22.40;99.90
11846;DHT22;5982;37.494;-8.758;2022-09-27T16:26:16;22.40;99.90
11846;DHT22;5982;37.494;-8.758;2022-09-27T16:28:45;22.20;99.90
11846;DHT22;5982;37.494;-8.758;2022-09-27T16:31:15;22.20;99.90
11846;DHT22;5982;37.494;-8.758;2022-09-27T16:33:48;22.20;99.90
11846;DHT22;5982;37.494;-8.758;2022-09-27T16:36:17;22.20;99.90
11846;DHT22;5982;37.494;-8.758;2022-09-27T16:38:48;22.10;99.90
11846;DHT22;5982;37.494;-8.758;2022-09-27T16:41:17;22.00;99.90
11846;DHT22;5982;37.494;-8.758;2022-09-27T16:43:47;21.90;99.90